Time;durP1;ratioP1;P1;durP2;ratioP2;P2;SDS_P1;SDS_P2;PMS_P1;PMS_P2;Temp;Humidity;BMP_temperature;BMP_pressure;BME280_temperature;BME280_humidity;BME280_pressure;Samples;Min_cycle;Max_cycle;Signal;HPM_P1;HPM_P2
2022/03/13 05:26:09;;;;;;;5.78;1.35;;;21.70;80.90;;;;;;5072433;28;20048;-69
2022/03/13 05:28:36;;;;;;;4.30;1.50;;;21.80;81.90;;;;;;5064846;28;20545;-69
2022/03/13 05:31:03;;;;;;;3.30;1.10;;;21.70;81.40;;;;;;5087333;28;20417;-69
2022/03/13 05:33:31;;;;;;;5.60;1.35;;;21.70;81.60;;;;;;5067166;28;20028;-69
2022/03/13 05:35:59;;;;;;;4.35;1.00;;;21.70;80.60;;;;;;5086906;28;20043;-69
2022/03/13 05:38:26;;;;;;;4.28;1.00;;;21.70;80.90;;;;;;5068082;28;20040;-69
2022/03/13 05:40:54;;;;;;;2.00;0.95;;;21.70;80.30;;;;;;5060728;28;20486;-69
2022/03/13 05:43:22;;;;;;;3.90;1.50;;;21.80;80.40;;;;;;5032743;28;20101;-69
2022/03/13 05:45:50;;;;;;;5.32;1.10;;;21.70;80.50;;;;;;5074259;28;20114;-69
2022/03/13 05:48:18;;;;;;;3.28;1.00;;;21.70;80.50;;;;;;5055932;28;20056;-69
2022/03/13 05:50:46;;;;;;;2.42;1.10;;;21.70;79.20;;;;;;5076111;28;20110;-70
2022/03/13 05:53:14;;;;;;;3.15;1.15;;;21.70;79.60;;;;;;5033091;28;20032;-71
2022/03/13 05:55:41;;;;;;;2.05;1.10;;;21.70;79.70;;;;;;5051313;28;20397;-70
2022/03/13 05:58:08;;;;;;;7.72;1.13;;;21.60;79.60;;;;;;5050009;28;20036;-70
2022/03/13 06:00:36;;;;;;;7.78;1.63;;;21.70;80.00;;;;;;5055142;28;20309;-69
2022/03/13 06:03:04;;;;;;;3.60;0.88;;;21.60;79.00;;;;;;5066409;28;20486;-69
2022/03/13 06:05:37;;;;;;;5.00;1.00;;;21.60;79.30;;;;;;5055628;28;20516;-70
2022/03/13 06:08:04;;;;;;;2.75;1.20;;;21.70;79.40;;;;;;5070926;28;20045;-70
2022/03/13 06:10:32;;;;;;;2.67;0.90;;;21.70;78.90;;;;;;5085027;28;20036;-69
2022/03/13 06:13:00;;;;;;;5.60;1.10;;;21.70;77.90;;;;;;5088084;28;20035;-69
2022/03/13 06:15:28;;;;;;;3.03;1.00;;;21.70;78.10;;;;;;5069867;28;20091;-70
2022/03/13 06:17:57;;;;;;;4.05;1.20;;;21.70;77.50;;;;;;5043836;28;20052;-70
2022/03/13 06:20:24;;;;;;;5.07;1.30;;;21.60;78.10;;;;;;5069446;28;20030;-71
2022/03/13 06:22:51;;;;;;;2.75;0.88;;;21.60;78.90;;;;;;5087271;28;20462;-70
2022/03/13 09:36:25;;;;;;;3.70;1.30;;;21.30;81.00;;;;;;5076090;28;20098;-70
2022/03/13 09:38:53;;;;;;;3.58;1.10;;;21.30;80.10;;;;;;5058165;28;20506;-71
2022/03/13 09:41:20;;;;;;;4.97;1.50;;;21.30;80.30;;;;;;5056669;28;20441;-71
2022/03/13 09:43:53;;;;;;;5.38;1.20;;;21.30;80.10;;;;;;5055604;28;20493;-72
2022/03/13 09:46:20;;;;;;;7.80;1.30;;;21.30;80.30;;;;;;5049625;28;20056;-73
2022/03/13 09:48:47;;;;;;;7.63;1.58;;;21.30;80.30;;;;;;5056583;28;20032;-70
2022/03/13 09:51:15;;;;;;;3.97;1.30;;;21.30;80.40;;;;;;5067110;28;20024;-73
2022/03/13 09:53:42;;;;;;;9.93;1.65;;;21.30;80.30;;;;;;5065529;28;20032;-69
2022/03/13 09:56:09;;;;;;;7.30;1.50;;;21.30;80.70;;;;;;5077853;28;20037;-71
2022/03/13 09:58:36;;;;;;;4.60;1.20;;;21.40;80.90;;;;;;5075412;28;20102;-69
2022/03/13 10:01:03;;;;;;;2.40;1.10;;;21.30;80.80;;;;;;5070079;28;20055;-69
2022/03/13 10:03:30;;;;;;;1.83;0.90;;;21.30;80.90;;;;;;5023671;28;20425;-70
2022/03/13 10:05:59;;;;;;;2.72;0.90;;;21.30;81.10;;;;;;5068375;28;20036;-71
2022/03/13 10:08:30;;;;;;;6.35;1.33;;;21.30;80.90;;;;;;5035053;28;20059;-69
2022/03/13 10:10:58;;;;;;;2.20;1.10;;;21.30;81.00;;;;;;5050368;28;20028;-71
2022/03/13 10:13:45;;;;;;;7.28;1.20;;;21.30;80.90;;;;;;5063647;28;20094;-70
2022/03/13 10:16:19;;;;;;;2.53;1.00;;;21.30;80.80;;;;;;5049620;28;20040;-69
2022/03/13 10:18:47;;;;;;;3.40;1.10;;;21.30;80.70;;;;;;5032727;28;20041;-70
2022/03/13 10:21:19;;;;;;;6.10;1.27;;;21.30;80.80;;;;;;5069322;28;20052;-70
2022/03/13 10:23:49;;;;;;;5.13;1.33;;;21.30;80.80;;;;;;5067656;28;20487;-70
2022/03/13 10:26:18;;;;;;;;;;;21.30;81.00;;;;;;5039345;28;20402;-70
2022/03/13 10:28:46;;;;;;;4.63;1.20;;;21.30;81.00;;;;;;5051001;28;19916;-71
2022/03/13 10:31:16;;;;;;;3.75;1.05;;;21.30;81.00;;;;;;5055869;28;20111;-71
2022/03/13 10:36:24;;;;;;;7.40;1.20;;;21.30;81.20;;;;;;5061908;28;20052;-69
2022/03/13 10:38:52;;;;;;;6.00;1.55;;;21.30;81.20;;;;;;5030982;28;20522;-71
2022/03/13 10:41:20;;;;;;;2.63;1.15;;;21.30;81.20;;;;;;5031284;28;20112;-70
2022/03/13 10:43:52;;;;;;;2.30;1.10;;;21.30;81.00;;;;;;5032831;28;20033;-72
2022/03/13 10:46:30;;;;;;;9.50;1.20;;;21.30;81.10;;;;;;5050822;28;20036;-71
2022/03/13 10:48:59;;;;;;;8.40;1.30;;;21.30;80.80;;;;;;5015382;28;20025;-71
2022/03/13 10:51:45;;;;;;;4.40;1.27;;;21.30;81.00;;;;;;5051559;28;20055;-71
2022/03/13 10:54:31;;;;;;;4.43;1.08;;;21.30;81.10;;;;;;5042317;28;20488;-72
2022/03/13 10:57:25;;;;;;;2.00;1.05;;;21.30;81.20;;;;;;5018856;28;20052;-69
2022/03/13 11:00:22;;;;;;;4.22;1.10;;;21.30;81.60;;;;;;5033145;28;20041;-72
2022/03/13 11:02:50;;;;;;;2.50;0.90;;;21.30;81.60;;;;;;5034469;28;20923;-68
2022/03/13 11:05:17;;;;;;;2.05;1.10;;;21.20;81.70;;;;;;5024900;28;20037;-70
2022/03/13 11:07:45;;;;;;;2.67;0.98;;;21.20;81.90;;;;;;5041211;28;20037;-69
2022/03/13 11:10:12;;;;;;;4.82;1.02;;;21.20;81.90;;;;;;5040863;28;20052;-68
2022/03/13 11:12:40;;;;;;;4.22;1.20;;;21.10;82.10;;;;;;5022900;28;20566;-69
2022/03/13 11:15:09;;;;;;;3.25;1.10;;;21.20;82.40;;;;;;5006329;28;20412;-69
2022/03/13 11:17:37;;;;;;;2.13;1.20;;;21.10;82.70;;;;;;5015749;28;20037;-69
2022/03/13 11:20:09;;;;;;;3.83;1.08;;;21.10;82.70;;;;;;5050878;28;20314;-68
2022/03/13 11:22:36;;;;;;;4.15;0.88;;;21.00;82.80;;;;;;5051162;28;20033;-68
2022/03/13 11:25:12;;;;;;;3.17;1.15;;;21.00;83.10;;;;;;5018294;28;20067;-69
2022/03/13 11:27:41;;;;;;;5.65;1.15;;;21.00;83.10;;;;;;5032803;28;20068;-70
2022/03/13 11:30:10;;;;;;;5.70;1.70;;;21.00;83.30;;;;;;5019450;28;20189;-68
2022/03/13 11:32:50;;;;;;;3.55;1.20;;;21.00;83.70;;;;;;5014771;28;20072;-70
2022/03/13 11:35:18;;;;;;;5.03;1.48;;;21.00;83.60;;;;;;5033122;28;20029;-71
2022/03/13 11:37:49;;;;;;;5.10;1.30;;;21.00;83.50;;;;;;5067445;28;20036;-69
2022/03/13 11:40:29;;;;;;;2.67;1.13;;;20.90;83.50;;;;;;5037005;28;20112;-70
2022/03/13 11:43:06;;;;;;;6.07;1.52;;;20.90;83.50;;;;;;5052978;28;20043;-71
2022/03/13 11:45:35;;;;;;;4.10;1.67;;;20.90;83.60;;;;;;5053612;28;20457;-70
2022/03/13 11:48:18;;;;;;;3.47;1.17;;;20.90;83.30;;;;;;5043196;28;20033;-70
2022/03/13 11:50:55;;;;;;;2.95;1.10;;;20.90;83.80;;;;;;5070474;28;20107;-70
2022/03/13 11:53:30;;;;;;;2.75;1.00;;;20.90;83.90;;;;;;5065299;28;20037;-70
2022/03/13 11:56:03;;;;;;;2.70;1.05;;;20.80;83.80;;;;;;5051112;28;20555;-69
2022/03/13 11:58:46;;;;;;;4.68;1.33;;;20.80;84.10;;;;;;5052577;28;20062;-70
2022/03/13 12:01:23;;;;;;;3.90;1.33;;;20.80;84.10;;;;;;5067227;28;20025;-70
2022/03/13 12:04:09;;;;;;;4.93;1.33;;;20.80;84.30;;;;;;5073638;28;20035;-70
2022/03/13 13:37:07;;;;;;;5.13;1.67;;;20.50;85.90;;;;;;5063202;28;20548;-70
2022/03/13 13:39:34;;;;;;;2.70;1.35;;;20.40;85.90;;;;;;5060263;28;20048;-70
2022/03/13 13:42:02;;;;;;;6.40;1.80;;;20.40;85.80;;;;;;5055643;28;20394;-70
2022/03/13 13:44:32;;;;;;;5.57;1.90;;;20.40;85.70;;;;;;5056135;28;20056;-70
2022/03/13 13:47:06;;;;;;;3.45;1.60;;;20.40;85.60;;;;;;5055953;28;20074;-70
2022/03/13 13:49:34;;;;;;;4.40;2.10;;;20.40;85.70;;;;;;5073826;28;20445;-70
2022/03/13 13:52:11;;;;;;;7.13;1.70;;;20.30;85.80;;;;;;5066582;28;20399;-70
2022/03/13 13:54:38;;;;;;;3.97;1.90;;;20.30;86.00;;;;;;5058143;28;20520;-70
2022/03/13 13:57:05;;;;;;;4.03;1.40;;;20.30;86.00;;;;;;5048475;28;20119;-70
2022/03/13 13:59:38;;;;;;;3.92;1.70;;;20.30;86.10;;;;;;5049493;28;20044;-70
2022/03/13 14:02:08;;;;;;;4.63;1.55;;;20.30;86.20;;;;;;5039834;28;20031;-69
2022/03/13 14:04:35;;;;;;;3.92;1.42;;;20.30;86.40;;;;;;5055320;28;20390;-70
2022/03/13 14:07:04;;;;;;;5.28;1.60;;;20.20;86.40;;;;;;5015205;28;20420;-70
2022/03/13 14:09:31;;;;;;;4.82;1.88;;;20.20;86.60;;;;;;5042846;28;20064;-70
2022/03/13 14:11:58;;;;;;;5.10;1.75;;;20.20;86.60;;;;;;5056763;28;20060;-70
2022/03/13 14:14:25;;;;;;;9.23;2.10;;;20.20;86.80;;;;;;5044365;28;20395;-70
2022/03/13 14:16:53;;;;;;;6.97;1.90;;;20.20;86.80;;;;;;5054294;28;20088;-71
2022/03/13 14:19:21;;;;;;;5.13;2.13;;;20.20;86.90;;;;;;5040748;28;20045;-71
2022/03/13 14:21:49;;;;;;;3.63;1.90;;;20.10;87.00;;;;;;5029883;28;20094;-70
2022/03/13 14:24:16;;;;;;;6.63;1.80;;;20.00;87.30;;;;;;5035450;28;20037;-71
2022/03/13 14:26:43;;;;;;;7.55;2.28;;;20.00;87.30;;;;;;5048611;28;20043;-71
2022/03/13 14:29:11;;;;;;;8.48;2.00;;;20.00;87.20;;;;;;5039220;28;20360;-71
2022/03/13 14:31:38;;;;;;;5.97;1.83;;;20.00;87.40;;;;;;5044831;28;20047;-71
2022/03/13 14:34:05;;;;;;;6.60;1.88;;;20.00;87.50;;;;;;5040664;28;20040;-70
2022/03/13 14:36:34;;;;;;;3.53;1.50;;;20.00;87.40;;;;;;5057597;28;20055;-70
2022/03/13 14:39:02;;;;;;;5.53;2.08;;;20.00;87.50;;;;;;5065705;28;20037;-71
2022/03/13 14:41:30;;;;;;;4.85;1.90;;;19.90;87.50;;;;;;5009692;28;20037;-71
2022/03/13 14:44:01;;;;;;;4.45;1.83;;;19.90;87.50;;;;;;5043252;28;20048;-70
2022/03/13 14:46:30;;;;;;;5.55;2.20;;;19.90;87.80;;;;;;5050654;28;20040;-71
2022/03/13 14:48:57;;;;;;;5.65;1.60;;;19.90;88.00;;;;;;5036090;28;20088;-70
2022/03/13 14:51:24;;;;;;;6.85;1.98;;;19.90;88.00;;;;;;5044530;28;20029;-70
2022/03/13 14:53:51;;;;;;;3.75;1.98;;;20.00;88.10;;;;;;5054044;28;20530;-70
2022/03/13 14:56:19;;;;;;;8.50;2.20;;;20.00;88.10;;;;;;5044008;28;20044;-70
2022/03/13 14:58:46;;;;;;;4.00;2.00;;;20.00;88.00;;;;;;5027093;28;20048;-70
2022/03/13 15:01:13;;;;;;;4.10;1.77;;;20.00;88.10;;;;;;5047799;28;20032;-71
2022/03/13 15:03:41;;;;;;;6.35;1.95;;;20.00;88.10;;;;;;5040900;28;20032;-70
2022/03/13 15:06:08;;;;;;;5.63;2.03;;;19.90;88.20;;;;;;5049964;28;20033;-70
2022/03/13 15:08:37;;;;;;;8.38;2.10;;;19.90;88.20;;;;;;5057539;28;20383;-70
2022/03/13 15:11:04;;;;;;;4.35;1.77;;;19.90;88.30;;;;;;5050741;28;20044;-70
2022/03/13 15:13:32;;;;;;;4.97;2.00;;;19.90;88.40;;;;;;5034917;28;20052;-70
2022/03/13 15:15:59;;;;;;;5.38;1.90;;;19.80;88.40;;;;;;5025192;28;20036;-70
2022/03/13 15:18:27;;;;;;;7.20;2.33;;;19.80;88.50;;;;;;5032044;28;20558;-70
2022/03/13 15:20:54;;;;;;;7.00;2.60;;;19.80;88.40;;;;;;5059909;28;20751;-70
2022/03/13 15:23:25;;;;;;;6.00;2.28;;;19.80;88.40;;;;;;5059871;28;20040;-70
2022/03/13 15:25:55;;;;;;;7.22;2.60;;;19.80;88.40;;;;;;5058765;28;20028;-70
2022/03/13 15:28:22;;;;;;;7.13;2.40;;;19.80;88.30;;;;;;5067631;28;20039;-70
2022/03/13 15:30:50;;;;;;;7.75;2.15;;;19.80;88.40;;;;;;5047204;28;20110;-69
2022/03/13 15:33:17;;;;;;;5.00;2.20;;;19.70;88.40;;;;;;5031446;28;20113;-70
2022/03/13 15:35:45;;;;;;;5.78;2.30;;;19.70;88.50;;;;;;5047738;28;20079;-69
2022/03/13 15:38:13;;;;;;;9.43;2.70;;;19.70;88.50;;;;;;5037576;28;20072;-69
2022/03/13 15:40:40;;;;;;;8.52;2.47;;;19.70;88.40;;;;;;5073881;28;20047;-69
2022/03/13 15:43:07;;;;;;;4.32;2.10;;;19.70;88.50;;;;;;5082819;28;20036;-69
2022/03/13 15:45:36;;;;;;;6.40;2.22;;;19.60;88.50;;;;;;5076519;28;20032;-70
2022/03/13 15:48:04;;;;;;;5.68;2.50;;;19.60;88.50;;;;;;5078602;28;20025;-69
2022/03/13 15:50:39;;;;;;;8.15;2.20;;;19.60;88.60;;;;;;5028967;28;20032;-70
2022/03/13 15:53:06;;;;;;;5.22;2.30;;;19.60;88.80;;;;;;5072437;28;20028;-70
2022/03/13 15:55:34;;;;;;;4.72;2.20;;;19.60;88.70;;;;;;5043127;28;20028;-70
2022/03/13 15:58:01;;;;;;;4.15;2.00;;;19.60;88.90;;;;;;5049550;28;20047;-69
2022/03/13 16:00:28;;;;;;;4.88;2.17;;;19.60;88.70;;;;;;5048832;28;20052;-70
2022/03/13 16:22:35;;;;;;;5.55;2.10;;;19.40;89.10;;;;;;5052046;28;20120;-70
2022/03/13 16:25:03;;;;;;;5.05;2.20;;;19.40;89.30;;;;;;5044051;28;20542;-70
2022/03/13 16:27:31;;;;;;;7.75;2.17;;;19.30;89.50;;;;;;5043460;28;20052;-70
2022/03/13 16:29:58;;;;;;;7.90;1.90;;;19.30;89.50;;;;;;5001417;28;20086;-70
2022/03/13 16:32:26;;;;;;;7.00;2.20;;;19.30;89.70;;;;;;5037381;28;20037;-70
2022/03/13 16:34:53;;;;;;;7.53;2.30;;;19.30;89.80;;;;;;5060736;28;20432;-70
2022/03/13 16:37:20;;;;;;;7.25;2.05;;;19.30;89.90;;;;;;5035499;28;20079;-70
2022/03/13 16:39:51;;;;;;;9.30;2.28;;;19.30;89.90;;;;;;5031608;28;20044;-70
2022/03/13 16:42:19;;;;;;;5.72;1.80;;;19.30;90.10;;;;;;5038274;28;20029;-70
2022/03/13 16:44:46;;;;;;;5.35;1.83;;;19.30;90.30;;;;;;5023997;28;20032;-70
2022/03/13 16:47:14;;;;;;;6.43;2.15;;;19.30;90.20;;;;;;5060096;28;20541;-70
2022/03/13 16:49:41;;;;;;;4.13;1.80;;;19.30;90.30;;;;;;5044002;28;20087;-70
2022/03/13 16:52:09;;;;;;;9.00;1.60;;;19.30;90.10;;;;;;5050427;28;20037;-70
2022/03/13 16:54:36;;;;;;;7.18;1.52;;;19.20;90.10;;;;;;5040711;28;20029;-70
2022/03/13 16:57:03;;;;;;;5.40;1.77;;;19.20;90.10;;;;;;5056940;28;20040;-70
2022/03/13 16:59:34;;;;;;;6.95;2.15;;;19.20;90.20;;;;;;5052768;28;20041;-70
2022/03/13 17:02:00;;;;;;;;;;;19.20;90.20;;;;;;5048015;28;20108;-70
2022/03/13 17:04:28;;;;;;;6.53;1.92;;;19.10;90.20;;;;;;5054156;28;19923;-70
2022/03/13 17:06:55;;;;;;;5.30;2.22;;;19.10;90.40;;;;;;5020129;28;20037;-69
2022/03/13 17:09:22;;;;;;;4.13;2.05;;;19.10;90.40;;;;;;5056636;28;20608;-69
2022/03/13 17:11:49;;;;;;;4.60;1.90;;;19.10;90.40;;;;;;5051110;28;20037;-69
2022/03/13 17:14:17;;;;;;;6.32;2.38;;;19.10;90.30;;;;;;5051636;28;20099;-69
2022/03/13 17:16:44;;;;;;;5.65;1.95;;;19.10;90.30;;;;;;5054943;28;20029;-70
2022/03/13 17:19:11;;;;;;;7.53;2.38;;;19.10;90.20;;;;;;5040469;28;20115;-69
2022/03/13 17:21:40;;;;;;;9.80;2.22;;;19.00;90.40;;;;;;5036395;28;20037;-69
2022/03/13 17:24:09;;;;;;;6.68;2.05;;;19.10;90.20;;;;;;5043333;28;20049;-69
2022/03/13 17:26:39;;;;;;;4.82;2.13;;;19.00;90.00;;;;;;5049127;28;20560;-69
2022/03/13 17:29:10;;;;;;;4.57;1.90;;;19.00;90.00;;;;;;5049577;28;20044;-70
2022/03/13 17:31:37;;;;;;;;;;;18.90;90.10;;;;;;5031811;28;20047;-70
2022/03/13 17:34:05;;;;;;;5.10;1.95;;;18.90;90.30;;;;;;5039794;28;19915;-70
2022/03/13 17:36:36;;;;;;;4.97;1.85;;;18.90;90.30;;;;;;5066696;28;20414;-70
2022/03/13 17:39:05;;;;;;;10.48;2.22;;;18.90;90.20;;;;;;5039662;28;20033;-69
2022/03/13 17:41:32;;;;;;;5.05;1.90;;;18.90;90.30;;;;;;5022899;28;20124;-69
2022/03/13 17:43:59;;;;;;;4.72;1.85;;;18.80;90.30;;;;;;5007728;28;20037;-69
2022/03/13 17:46:27;;;;;;;4.88;1.92;;;18.80;90.20;;;;;;5041390;28;20033;-70
2022/03/13 17:48:54;;;;;;;9.70;1.85;;;18.80;90.20;;;;;;5032509;28;20072;-70
2022/03/13 17:51:21;;;;;;;4.43;1.88;;;18.80;90.30;;;;;;5021825;28;20052;-70
2022/03/13 17:53:48;;;;;;;5.97;1.75;;;18.80;90.30;;;;;;5009601;28;20094;-70
2022/03/13 17:56:16;;;;;;;6.60;1.80;;;18.70;90.10;;;;;;5047939;28;20025;-70
2022/03/13 17:58:43;;;;;;;3.67;1.65;;;18.80;90.20;;;;;;5041339;28;20094;-71
2022/03/13 18:01:12;;;;;;;4.97;1.63;;;18.80;90.20;;;;;;5058869;28;20021;-70
2022/03/13 18:03:39;;;;;;;4.30;1.80;;;18.70;90.10;;;;;;5049785;28;20380;-70
2022/03/13 18:06:06;;;;;;;5.07;2.20;;;18.80;90.20;;;;;;5050873;28;20033;-71
2022/03/13 18:08:34;;;;;;;5.93;2.10;;;18.70;90.40;;;;;;5041708;28;20376;-70
2022/03/13 18:11:02;;;;;;;10.23;2.20;;;18.80;90.30;;;;;;5020412;28;20040;-70
2022/03/13 18:13:29;;;;;;;6.85;1.88;;;18.70;90.10;;;;;;5008980;28;20029;-70
2022/03/13 18:15:56;;;;;;;5.38;1.60;;;18.70;90.20;;;;;;5050602;28;21006;-70
2022/03/13 18:18:23;;;;;;;3.53;1.70;;;18.70;90.20;;;;;;5039057;28;20091;-70
2022/03/13 18:20:51;;;;;;;5.32;1.95;;;18.60;90.30;;;;;;5031880;28;20137;-70
2022/03/13 18:23:19;;;;;;;5.88;1.73;;;18.50;90.30;;;;;;5043599;28;20036;-70
2022/03/13 18:25:47;;;;;;;8.98;1.67;;;18.60;90.30;;;;;;5048773;28;20025;-70
2022/03/13 18:28:14;;;;;;;7.00;1.85;;;18.50;90.50;;;;;;5067198;28;20033;-70
2022/03/13 18:30:42;;;;;;;15.55;2.05;;;18.50;90.40;;;;;;5047549;28;20032;-69
2022/03/13 18:33:09;;;;;;;6.38;1.90;;;18.60;90.40;;;;;;5067002;28;20055;-70
2022/03/13 18:35:36;;;;;;;8.18;2.00;;;18.60;90.30;;;;;;5028337;28;20031;-68
2022/03/13 18:38:03;;;;;;;5.55;1.98;;;18.60;90.40;;;;;;5070946;28;20055;-69
2022/03/13 18:40:31;;;;;;;7.97;2.83;;;18.60;90.50;;;;;;5047085;28;20552;-70
2022/03/13 18:42:59;;;;;;;4.07;1.55;;;18.60;90.60;;;;;;5045072;28;20556;-71
2022/03/13 18:45:26;;;;;;;6.13;1.92;;;18.60;90.50;;;;;;5053709;28;20029;-71
2022/03/13 18:47:54;;;;;;;7.57;2.05;;;18.60;90.50;;;;;;5044570;28;20083;-70
2022/03/13 18:50:21;;;;;;;7.47;1.77;;;18.60;90.40;;;;;;5048594;28;20047;-70
2022/03/13 18:52:49;;;;;;;7.20;1.60;;;18.60;90.50;;;;;;5073546;28;20032;-70
2022/03/13 18:55:16;;;;;;;4.78;1.83;;;18.50;90.50;;;;;;5062479;28;20009;-71
2022/03/13 18:57:43;;;;;;;7.13;2.22;;;18.60;90.40;;;;;;5086824;28;20363;-70
2022/03/13 19:00:12;;;;;;;6.50;2.05;;;18.50;90.30;;;;;;5087084;28;20040;-70
2022/03/13 19:02:39;;;;;;;8.07;2.13;;;18.60;90.20;;;;;;5058873;28;20032;-70
2022/03/13 19:05:06;;;;;;;6.63;1.83;;;18.50;90.20;;;;;;5074473;28;20210;-70
2022/03/13 19:07:35;;;;;;;4.93;1.85;;;18.50;90.30;;;;;;5075580;28;20228;-70
2022/03/13 19:10:05;;;;;;;5.30;1.85;;;18.50;90.20;;;;;;5046880;28;20040;-70
2022/03/13 19:12:35;;;;;;;5.23;2.23;;;18.50;90.10;;;;;;5042983;28;20110;-70
2022/03/13 19:15:03;;;;;;;6.45;1.98;;;18.50;90.20;;;;;;5068952;28;20269;-69
2022/03/13 19:17:31;;;;;;;6.72;2.03;;;18.50;90.30;;;;;;5058185;28;20060;-69
2022/03/13 19:19:59;;;;;;;7.00;1.83;;;18.50;90.30;;;;;;5072404;28;20461;-70
2022/03/13 19:22:29;;;;;;;7.40;1.90;;;18.50;90.30;;;;;;5068356;28;20044;-70
2022/03/13 19:24:57;;;;;;;5.68;1.73;;;18.50;90.30;;;;;;5036240;28;20040;-70
2022/03/13 19:27:25;;;;;;;8.98;2.03;;;18.50;90.50;;;;;;5019133;28;20506;-70
2022/03/13 19:29:52;;;;;;;7.28;1.90;;;18.50;90.30;;;;;;5004669;28;20029;-70
2022/03/13 19:32:20;;;;;;;8.35;2.53;;;18.50;90.40;;;;;;5048638;28;20486;-70
2022/03/13 19:34:48;;;;;;;6.82;1.92;;;18.40;90.60;;;;;;5042368;28;20047;-70
2022/03/13 19:37:16;;;;;;;5.68;2.13;;;18.50;90.70;;;;;;5045590;28;20032;-70
2022/03/13 19:39:44;;;;;;;5.28;1.88;;;18.40;90.70;;;;;;5054215;22;20045;-63
2022/03/13 19:42:11;;;;;;;4.95;2.03;;;18.40;90.70;;;;;;5031568;28;20084;-63
2022/03/13 19:44:39;;;;;;;8.38;2.25;;;18.40;90.60;;;;;;5050973;28;20025;-63
2022/03/13 19:47:10;;;;;;;6.25;2.03;;;18.40;90.60;;;;;;5055263;28;20040;-62
2022/03/13 19:49:38;;;;;;;12.85;2.40;;;18.30;90.60;;;;;;5053929;28;20382;-63
2022/03/13 19:52:06;;;;;;;7.65;2.08;;;18.30;90.70;;;;;;5071275;28;20047;-63
2022/03/13 19:54:33;;;;;;;6.45;2.50;;;18.40;90.80;;;;;;5071914;28;20093;-63
2022/03/13 19:57:01;;;;;;;6.90;1.95;;;18.40;90.90;;;;;;5071215;28;20040;-63
2022/03/13 19:59:28;;;;;;;10.38;2.60;;;18.40;91.00;;;;;;5068835;28;20516;-63
2022/03/13 20:01:56;;;;;;;5.43;1.70;;;18.40;90.90;;;;;;5069960;28;20060;-63
2022/03/13 20:04:30;;;;;;;3.80;1.98;;;18.40;91.10;;;;;;5071121;28;20514;-63
2022/03/13 20:06:57;;;;;;;4.63;2.15;;;18.40;91.10;;;;;;5046999;28;20388;-63
2022/03/13 20:09:25;;;;;;;8.35;2.05;;;18.40;91.00;;;;;;5069939;28;20029;-63
2022/03/13 20:11:52;;;;;;;5.90;2.05;;;18.40;91.00;;;;;;5070454;28;20051;-63
2022/03/13 20:14:20;;;;;;;7.82;2.10;;;18.40;90.90;;;;;;5070799;28;20453;-63
2022/03/13 20:16:48;;;;;;;6.55;2.20;;;18.40;90.90;;;;;;5052902;28;20115;-62
2022/03/13 20:19:16;;;;;;;5.00;1.88;;;18.30;90.70;;;;;;5070581;28;20044;-63
2022/03/13 20:21:44;;;;;;;6.68;2.22;;;18.30;90.80;;;;;;5052885;28;20047;-63
2022/03/13 20:24:12;;;;;;;10.90;3.17;;;18.30;91.00;;;;;;5069102;28;20033;-63
2022/03/13 20:26:40;;;;;;;9.18;2.90;;;18.30;90.90;;;;;;5052359;28;20290;-63
2022/03/13 20:29:08;;;;;;;6.45;3.42;;;18.30;91.00;;;;;;5069085;28;20383;-62
2022/03/13 20:31:35;;;;;;;8.40;3.45;;;18.40;91.00;;;;;;5061861;28;20036;-62
2022/03/13 20:34:03;;;;;;;6.68;3.90;;;18.50;90.80;;;;;;5066221;28;20036;-62
2022/03/13 20:36:30;;;;;;;9.85;3.63;;;18.50;90.80;;;;;;5052714;28;20094;-63
2022/03/13 20:38:59;;;;;;;9.65;3.40;;;18.60;90.80;;;;;;5068959;28;20077;-63
2022/03/13 20:41:28;;;;;;;8.98;3.40;;;18.60;90.70;;;;;;5057372;28;20032;-64
2022/03/13 20:43:55;;;;;;;10.50;3.10;;;18.70;90.60;;;;;;5065041;28;20041;-64
2022/03/13 20:46:23;;;;;;;6.72;2.50;;;18.60;90.30;;;;;;5051680;28;20032;-66
2022/03/13 20:48:51;;;;;;;5.05;2.22;;;18.70;90.40;;;;;;5024481;28;20483;-66
2022/03/13 20:51:18;;;;;;;9.70;2.83;;;18.70;90.40;;;;;;5055768;28;20427;-65
2022/03/13 20:53:45;;;;;;;9.77;2.85;;;18.80;90.40;;;;;;5066625;28;20031;-66
2022/03/13 20:56:12;;;;;;;7.68;2.40;;;18.80;90.30;;;;;;5066564;28;20044;-67
2022/03/13 20:58:40;;;;;;;10.10;2.70;;;18.80;89.90;;;;;;5067122;28;20040;-66
2022/03/13 21:01:07;;;;;;;8.25;2.40;;;18.80;89.80;;;;;;5057858;28;20139;-67
2022/03/13 21:03:34;;;;;;;6.40;2.30;;;18.80;89.70;;;;;;5067969;28;20031;-66
2022/03/13 21:06:03;;;;;;;7.68;2.45;;;18.80;89.80;;;;;;5062749;28;20052;-66
2022/03/13 21:08:30;;;;;;;9.90;2.53;;;18.90;89.90;;;;;;5059501;28;20069;-66
2022/03/13 21:10:57;;;;;;;6.47;2.42;;;19.00;89.90;;;;;;5061975;28;20475;-66
2022/03/13 21:13:30;;;;;;;9.63;2.67;;;19.00;89.90;;;;;;5054027;28;20048;-68
2022/03/13 21:15:58;;;;;;;5.90;2.08;;;19.00;89.60;;;;;;5030804;28;20720;-67
2022/03/13 21:18:28;;;;;;;10.57;2.78;;;19.10;89.60;;;;;;5064419;28;20494;-66
2022/03/13 21:20:56;;;;;;;6.50;2.75;;;19.10;89.80;;;;;;5043083;28;20571;-67
2022/03/13 21:23:23;;;;;;;7.55;2.33;;;19.10;89.60;;;;;;5046834;28;20215;-67
2022/03/13 21:25:51;;;;;;;8.27;2.70;;;19.20;89.80;;;;;;5066730;28;20094;-67
2022/03/13 21:28:19;;;;;;;7.18;2.40;;;19.20;89.60;;;;;;5070142;28;20064;-67
2022/03/13 21:30:46;;;;;;;11.90;2.78;;;19.30;89.50;;;;;;5070110;28;20093;-67
2022/03/13 21:33:14;;;;;;;10.20;2.30;;;19.30;89.60;;;;;;5070880;28;20035;-67
2022/03/13 21:35:47;;;;;;;6.40;2.03;;;19.30;89.60;;;;;;5070450;28;20033;-67
2022/03/13 21:38:15;;;;;;;11.88;5.50;;;19.30;89.60;;;;;;5070841;28;20386;-67
2022/03/13 21:40:46;;;;;;;29.55;15.82;;;19.40;89.60;;;;;;5050443;28;20053;-67
2022/03/13 21:43:13;;;;;;;20.42;9.60;;;19.50;89.70;;;;;;5050208;28;20088;-67
2022/03/13 21:45:40;;;;;;;7.72;4.10;;;19.50;89.60;;;;;;5050060;28;20538;-67
2022/03/13 21:48:07;;;;;;;6.65;2.50;;;19.50;89.30;;;;;;5050231;28;20399;-67
2022/03/13 21:50:35;;;;;;;6.45;2.20;;;19.50;89.30;;;;;;5050457;28;20036;-67
2022/03/13 21:53:02;;;;;;;6.38;2.15;;;19.60;89.30;;;;;;5032730;28;20033;-67
2022/03/13 21:55:29;;;;;;;4.75;1.80;;;19.70;89.20;;;;;;5048603;28;20021;-67
2022/03/13 21:57:56;;;;;;;7.03;2.08;;;19.70;89.00;;;;;;5032004;28;20038;-67
2022/03/13 22:00:24;;;;;;;5.63;1.75;;;19.70;89.00;;;;;;5032394;28;20063;-67
2022/03/13 22:02:51;;;;;;;6.85;1.80;;;19.80;89.00;;;;;;5050192;28;20112;-67
2022/03/13 22:05:21;;;;;;;3.80;1.58;;;19.80;88.70;;;;;;5049943;28;20052;-67
2022/03/13 22:07:52;;;;;;;;;;;19.90;88.60;;;;;;5049901;28;20035;-67
2022/03/13 22:10:20;;;;;;;10.82;3.17;;;20.00;88.40;;;;;;5049330;28;19913;-67
2022/03/13 22:12:50;;;;;;;11.73;3.22;;;20.10;88.00;;;;;;5050069;28;20444;-67
2022/03/13 22:15:22;;;;;;;4.10;1.95;;;20.20;87.40;;;;;;5050200;28;20033;-67
2022/03/13 22:17:50;;;;;;;8.85;2.17;;;20.20;87.30;;;;;;5050372;28;20036;-67
2022/03/13 22:20:18;;;;;;;9.55;2.10;;;20.20;87.30;;;;;;5049769;28;20431;-67
2022/03/13 22:22:45;;;;;;;20.60;2.75;;;20.30;86.80;;;;;;5049215;28;20120;-67
2022/03/13 22:25:14;;;;;;;31.02;3.25;;;20.50;86.80;;;;;;5049570;28;20033;-67
2022/03/13 22:27:41;;;;;;;11.93;1.83;;;20.70;86.70;;;;;;5049275;28;20048;-67
2022/03/13 22:30:09;;;;;;;7.85;2.05;;;20.70;85.40;;;;;;5058180;28;20056;-67
2022/03/13 22:32:37;;;;;;;8.75;2.20;;;20.80;85.10;;;;;;5033707;28;20068;-68
2022/03/13 22:35:04;;;;;;;8.25;1.80;;;20.80;85.60;;;;;;5051785;28;20036;-68
2022/03/13 22:37:31;;;;;;;5.95;1.67;;;20.90;85.30;;;;;;5052558;28;20037;-68
2022/03/13 22:39:59;;;;;;;7.63;1.88;;;20.90;85.00;;;;;;5054987;28;20102;-68
2022/03/13 22:42:26;;;;;;;9.70;1.77;;;21.00;85.30;;;;;;5063903;28;20033;-68
2022/03/13 22:44:54;;;;;;;9.25;1.60;;;21.10;84.80;;;;;;5065496;28;20029;-67
2022/03/13 22:47:23;;;;;;;11.20;1.95;;;21.20;83.20;;;;;;5060223;28;20131;-68
2022/03/13 22:49:50;;;;;;;9.02;1.70;;;21.30;83.60;;;;;;5068334;28;20086;-68
2022/03/13 22:52:18;;;;;;;9.80;2.13;;;21.30;82.70;;;;;;5063541;28;20036;-67
2022/03/13 22:54:45;;;;;;;9.27;1.67;;;21.40;83.10;;;;;;5062056;28;20122;-68
2022/03/13 22:57:12;;;;;;;8.75;1.52;;;21.40;83.00;;;;;;5067662;28;20604;-68
2022/03/13 22:59:39;;;;;;;6.03;1.40;;;21.50;81.30;;;;;;5070635;28;20057;-67
2022/03/13 23:02:06;;;;;;;8.00;1.70;;;21.60;81.60;;;;;;5062297;28;20036;-68
2022/03/13 23:04:33;;;;;;;9.65;1.77;;;21.60;79.90;;;;;;5062480;28;20060;-68
2022/03/13 23:07:01;;;;;;;11.70;2.13;;;21.70;80.20;;;;;;5061019;28;20415;-68
2022/03/13 23:09:28;;;;;;;2.42;1.30;;;21.70;79.40;;;;;;5064502;28;20032;-67
2022/03/13 23:11:55;;;;;;;9.95;1.60;;;21.80;78.20;;;;;;5071344;28;20405;-68
2022/03/13 23:14:23;;;;;;;7.05;1.48;;;21.90;79.20;;;;;;5069831;28;20025;-68
2022/03/13 23:16:50;;;;;;;6.13;1.27;;;21.90;79.00;;;;;;5063663;28;20059;-68
2022/03/13 23:19:18;;;;;;;8.43;1.55;;;21.90;79.70;;;;;;5071208;28;20130;-67
2022/03/13 23:21:45;;;;;;;10.20;2.05;;;21.90;79.60;;;;;;5066926;28;20031;-67
2022/03/13 23:24:13;;;;;;;9.82;2.08;;;21.90;79.30;;;;;;5052650;28;20027;-68